Time;durP1;ratioP1;P1;durP2;ratioP2;P2;SDS_P1;SDS_P2;PMS_P1;PMS_P2;Temp;Humidity;BMP_temperature;BMP_pressure;BME280_temperature;BME280_humidity;BME280_pressure;Samples;Min_cycle;Max_cycle;Signal;HPM_P1;HPM_P2
2023/01/22 00:02:02;;;;;;;28.10;15.37;;;;;;;7.11;100.00;94454.25;6297110;22;20167;-76
2023/01/22 00:04:29;;;;;;;25.17;15.30;;;;;;;7.04;100.00;94464.59;6297162;22;20263;-75
2023/01/22 00:06:56;;;;;;;25.27;14.90;;;;;;;7.08;100.00;94465.00;6299280;22;20168;-75
2023/01/22 00:09:24;;;;;;;24.43;14.63;;;;;;;7.01;100.00;94465.03;6297534;22;20599;-76
2023/01/22 00:11:51;;;;;;;23.70;14.50;;;;;;;6.95;100.00;94437.41;6298314;22;20183;-77
2023/01/22 00:14:19;;;;;;;22.97;13.77;;;;;;;7.09;100.00;94461.41;6298549;22;20210;-76
2023/01/22 00:16:46;;;;;;;22.57;13.13;;;;;;;7.21;100.00;94462.41;6297058;22;20200;-77
2023/01/22 00:19:13;;;;;;;22.70;13.33;;;;;;;7.21;100.00;94441.72;6297328;22;20195;-77
2023/01/22 00:21:39;;;;;;;22.40;14.07;;;;;;;7.31;100.00;94460.97;6298929;22;20179;-77
2023/01/22 00:24:07;;;;;;;23.87;13.33;;;;;;;7.31;100.00;94457.59;6296895;22;20539;-76
2023/01/22 00:26:34;;;;;;;18.17;11.87;;;;;;;7.30;100.00;94437.94;6297015;22;20172;-76
2023/01/22 00:29:01;;;;;;;20.70;12.77;;;;;;;7.25;100.00;94437.72;6298864;22;20599;-75
2023/01/22 00:31:29;;;;;;;23.53;14.27;;;;;;;7.14;100.00;94452.06;6297030;22;21007;-75
2023/01/22 00:33:56;;;;;;;22.60;12.63;;;;;;;7.04;100.00;94445.72;6297726;22;20245;-76
2023/01/22 00:36:23;;;;;;;24.43;14.87;;;;;;;7.01;100.00;94459.84;6300002;22;20171;-75
2023/01/22 00:38:50;;;;;;;27.13;16.67;;;;;;;7.00;100.00;94452.28;6297197;22;20227;-75
2023/01/22 00:41:18;;;;;;;32.37;17.83;;;;;;;7.02;100.00;94448.50;6298310;22;20229;-75
2023/01/22 00:43:45;;;;;;;27.13;16.97;;;;;;;7.09;100.00;94440.75;6290146;22;20192;-75
2023/01/22 00:46:15;;;;;;;28.07;16.90;;;;;;;7.15;100.00;94468.38;6298132;22;20171;-76
2023/01/22 00:48:44;;;;;;;25.70;15.20;;;;;;;7.16;100.00;94464.78;6296482;22;20184;-75
2023/01/22 00:51:20;;;;;;;19.23;13.67;;;;;;;7.26;100.00;94465.97;6299006;22;20205;-77
2023/01/22 00:53:48;;;;;;;19.83;13.53;;;;;;;7.27;100.00;94469.34;6297333;22;20152;-76
2023/01/22 00:56:15;;;;;;;19.23;12.90;;;;;;;7.34;100.00;94458.00;6297141;22;20610;-77
2023/01/22 00:58:43;;;;;;;20.90;12.60;;;;;;;7.40;100.00;94472.69;6298643;22;20195;-77
2023/01/22 01:01:12;;;;;;;20.50;13.13;;;;;;;7.38;100.00;94479.88;6298558;22;20541;-79
2023/01/22 01:03:39;;;;;;;22.13;12.73;;;;;;;7.47;100.00;94470.09;6299624;22;20242;-75
2023/01/22 01:06:10;;;;;;;19.43;12.13;;;;;;;7.43;100.00;94479.25;6298294;22;20814;-71
2023/01/22 01:08:39;;;;;;;22.93;13.87;;;;;;;7.51;100.00;94488.56;6298404;22;20824;-80
2023/01/22 01:11:08;;;;;;;22.27;13.20;;;;;;;7.47;100.00;94483.03;6297251;22;20898;-76
2023/01/22 01:13:38;;;;;;;20.07;13.07;;;;;;;7.53;100.00;94500.31;6298578;22;20240;-79
2023/01/22 01:16:07;;;;;;;24.20;13.80;;;;;;;7.55;100.00;94503.47;6299940;22;20172;-78
2023/01/22 01:18:35;;;;;;;23.53;14.00;;;;;;;7.55;100.00;94493.13;6298292;22;20171;-78
2023/01/22 01:21:03;;;;;;;22.97;14.10;;;;;;;7.58;100.00;94500.50;6298344;22;20172;-78
2023/01/22 01:23:31;;;;;;;22.80;14.90;;;;;;;7.57;100.00;94508.44;6300637;22;20538;-79
2023/01/22 01:25:58;;;;;;;24.93;15.27;;;;;;;7.57;100.00;94501.47;6298130;22;20226;-79
2023/01/22 01:28:25;;;;;;;24.50;15.07;;;;;;;7.63;100.00;94523.94;6298893;22;20164;-78
2023/01/22 01:30:52;;;;;;;25.20;16.27;;;;;;;7.60;100.00;94529.50;6300842;22;20165;-78
2023/01/22 01:33:18;;;;;;;31.00;18.30;;;;;;;7.51;100.00;94532.50;6299404;22;20510;-79
2023/01/22 01:35:45;;;;;;;30.07;18.40;;;;;;;7.45;100.00;94534.13;6299375;22;20168;-79
2023/01/22 01:38:12;;;;;;;29.73;18.97;;;;;;;7.43;100.00;94525.78;6301385;22;20171;-80
2023/01/22 01:41:13;;;;;;;31.87;19.80;;;;;;;7.49;100.00;94537.91;6300483;22;20257;-81
2023/01/22 01:43:40;;;;;;;32.13;20.03;;;;;;;7.49;100.00;94543.06;6299860;22;20160;-79
2023/01/22 01:46:17;;;;;;;34.80;20.57;;;;;;;7.51;100.00;94537.69;6301538;22;20172;-77
2023/01/22 01:48:49;;;;;;;34.50;21.27;;;;;;;7.46;100.00;94522.00;6300036;22;20855;-79
2023/01/22 01:51:20;;;;;;;34.47;21.03;;;;;;;7.57;100.00;94532.50;6300630;22;20607;-80
2023/01/22 01:53:49;;;;;;;34.00;19.33;;;;;;;7.63;100.00;94530.91;6302320;22;20156;-80
2023/01/22 01:56:22;;;;;;;31.43;19.70;;;;;;;7.71;100.00;94534.06;6302593;22;20168;-80
2023/01/22 01:58:53;;;;;;;35.73;20.90;;;;;;;7.79;100.00;94539.00;6301388;22;20160;-79
2023/01/22 02:01:36;;;;;;;30.90;19.53;;;;;;;7.80;100.00;94524.28;6303852;22;20149;-80
2023/01/22 02:04:03;;;;;;;34.40;19.60;;;;;;;7.78;100.00;94527.09;6302396;22;20267;-79
2023/01/22 02:06:30;;;;;;;31.67;19.83;;;;;;;7.81;100.00;94526.69;6300331;22;20175;-80
2023/01/22 02:08:59;;;;;;;29.70;19.37;;;;;;;7.89;100.00;94520.47;6299850;22;20179;-77
2023/01/22 02:11:29;;;;;;;32.17;20.03;;;;;;;7.90;100.00;94522.88;6301204;22;20222;-77
2023/01/22 02:14:00;;;;;;;31.27;19.70;;;;;;;7.88;100.00;94519.69;6298049;22;20172;-77
2023/01/22 02:16:27;;;;;;;32.07;20.27;;;;;;;7.83;100.00;94516.91;6298293;22;20207;-76
2023/01/22 02:18:57;;;;;;;33.43;20.33;;;;;;;7.80;100.00;94530.25;6301448;22;20665;-77
2023/01/22 02:21:30;;;;;;;40.17;24.50;;;;;;;7.63;100.00;94539.47;6299342;22;20225;-77
2023/01/22 02:23:58;;;;;;;39.47;23.73;;;;;;;7.51;100.00;94528.13;6299972;22;20167;-77
2023/01/22 02:26:25;;;;;;;35.40;22.37;;;;;;;7.54;100.00;94530.31;6300432;22;20168;-77
2023/01/22 02:28:51;;;;;;;32.70;21.10;;;;;;;7.62;100.00;94531.91;6298573;22;20168;-77
2023/01/22 02:31:18;;;;;;;36.17;21.33;;;;;;;7.63;100.00;94531.69;6299272;22;20168;-77
2023/01/22 02:33:45;;;;;;;35.60;21.80;;;;;;;7.61;100.00;94527.72;6302137;22;20172;-77
2023/01/22 02:36:12;;;;;;;32.67;20.97;;;;;;;7.65;100.00;94523.72;6299060;22;20221;-75
2023/01/22 02:38:40;;;;;;;36.73;20.47;;;;;;;7.70;100.00;94513.59;6297786;22;20233;-76
2023/01/22 02:41:07;;;;;;;31.93;19.03;;;;;;;7.68;100.00;94508.59;6299436;22;20203;-76
2023/01/22 02:43:34;;;;;;;29.73;18.87;;;;;;;7.55;100.00;94495.72;6298817;22;20183;-76
2023/01/22 02:46:01;;;;;;;28.80;17.93;;;;;;;7.64;100.00;94522.97;6298689;22;20160;-76
2023/01/22 02:48:28;;;;;;;28.47;18.07;;;;;;;7.62;100.00;94526.75;6300363;22;20170;-76
2023/01/22 02:50:55;;;;;;;27.57;17.07;;;;;;;7.57;100.00;94531.72;6299216;22;20164;-76
2023/01/22 02:53:22;;;;;;;22.03;13.93;;;;;;;7.47;100.00;94516.63;6298532;22;20169;-76
2023/01/22 02:55:50;;;;;;;21.17;12.90;;;;;;;7.55;100.00;94539.69;6301062;22;20262;-77
2023/01/22 02:58:17;;;;;;;20.10;12.27;;;;;;;7.52;100.00;94545.25;6299160;22;20172;-76
2023/01/22 03:00:43;;;;;;;18.03;11.07;;;;;;;7.50;100.00;94551.63;6299420;22;20218;-76
2023/01/22 03:03:14;;;;;;;19.20;11.43;;;;;;;7.50;100.00;94526.56;6301084;22;20365;-76
2023/01/22 03:05:44;;;;;;;21.50;11.53;;;;;;;7.52;100.00;94523.78;6299727;22;20161;-76
2023/01/22 03:08:11;;;;;;;14.97;10.43;;;;;;;7.56;100.00;94530.91;6298165;22;20294;-77
2023/01/22 03:10:38;;;;;;;17.23;10.50;;;;;;;7.52;100.00;94529.75;6299475;22;20246;-76
2023/01/22 03:21:19;;;;;;;15.53;10.13;;;;;;;7.61;100.00;94530.31;6239116;23;20180;-77
2023/01/22 03:23:48;;;;;;;17.73;10.60;;;;;;;7.64;100.00;94530.72;6236608;22;20169;-76
2023/01/22 03:26:15;;;;;;;16.37;10.27;;;;;;;7.65;100.00;94534.88;6237565;22;20247;-76
2023/01/22 03:28:49;;;;;;;18.97;12.00;;;;;;;7.75;100.00;94537.84;6239484;22;20214;-76
2023/01/22 03:31:17;;;;;;;20.83;12.33;;;;;;;7.78;100.00;94544.41;6237186;22;20160;-78
2023/01/22 03:33:43;;;;;;;21.03;13.23;;;;;;;7.73;100.00;94537.25;6237909;22;20556;-79
2023/01/22 03:36:12;;;;;;;21.93;12.83;;;;;;;7.70;100.00;94535.09;6237695;22;20259;-78
2023/01/22 03:38:40;;;;;;;25.10;14.73;;;;;;;7.66;100.00;94536.47;6236796;22;20169;-82
2023/01/22 03:41:09;;;;;;;26.00;15.90;;;;;;;7.65;100.00;94545.22;6238120;22;20197;-78
2023/01/22 03:43:37;;;;;;;24.40;15.20;;;;;;;7.55;100.00;94544.84;6239089;22;20173;-77
2023/01/22 03:46:10;;;;;;;26.90;14.63;;;;;;;7.52;100.00;94544.44;6237957;22;20169;-77
2023/01/22 03:48:37;;;;;;;23.00;14.53;;;;;;;7.13;100.00;94491.03;6237826;22;20162;-77
2023/01/22 03:51:05;;;;;;;21.40;12.90;;;;;;;7.36;100.00;94528.34;6238192;22;20652;-77
2023/01/22 03:53:32;;;;;;;19.20;11.97;;;;;;;7.46;100.00;94556.41;6238480;22;20553;-77
2023/01/22 03:56:00;;;;;;;17.17;9.50;;;;;;;7.36;100.00;94550.81;6236861;22;20173;-77
2023/01/22 03:58:29;;;;;;;14.13;8.47;;;;;;;7.33;100.00;94559.00;6237211;23;20165;-76
2023/01/22 04:00:57;;;;;;;12.13;7.60;;;;;;;7.30;100.00;94552.41;6237760;23;20205;-77
2023/01/22 04:03:27;;;;;;;15.40;8.13;;;;;;;7.26;100.00;94553.03;6236973;23;20224;-77
2023/01/22 04:05:55;;;;;;;13.30;8.53;;;;;;;7.34;100.00;94558.00;6237093;23;20173;-77
2023/01/22 04:08:22;;;;;;;13.73;8.30;;;;;;;7.33;100.00;94561.59;6238579;23;20264;-77
2023/01/22 04:10:48;;;;;;;12.93;8.17;;;;;;;7.33;100.00;94566.75;6237397;23;20166;-77
2023/01/22 04:13:15;;;;;;;12.20;7.90;;;;;;;7.26;100.00;94565.97;6237931;22;20178;-78
2023/01/22 04:15:44;;;;;;;12.00;7.90;;;;;;;7.27;100.00;94564.97;6239284;23;20173;-77
2023/01/22 04:18:11;;;;;;;14.87;8.50;;;;;;;7.23;100.00;94567.16;6295716;22;20219;-78
2023/01/22 04:20:39;;;;;;;13.07;8.33;;;;;;;7.18;100.00;94566.97;6299038;22;20701;-78
2023/01/22 04:23:07;;;;;;;10.77;7.07;;;;;;;7.25;100.00;94575.50;6300616;22;20492;-79
2023/01/22 04:25:34;;;;;;;14.60;7.50;;;;;;;7.19;100.00;94573.69;6298523;22;20694;-79
2023/01/22 04:28:01;;;;;;;10.30;6.70;;;;;;;7.21;100.00;94574.31;6299343;22;20214;-78
2023/01/22 04:30:28;;;;;;;11.00;7.53;;;;;;;7.19;100.00;94578.06;6301101;22;20237;-78
2023/01/22 04:32:55;;;;;;;10.00;6.90;;;;;;;7.15;100.00;94574.31;6299503;22;20241;-79
2023/01/22 04:35:22;;;;;;;10.97;6.77;;;;;;;7.15;100.00;94584.66;6299528;22;20199;-80
2023/01/22 04:37:50;;;;;;;10.30;6.53;;;;;;;7.16;100.00;94593.97;6301034;22;20491;-78
2023/01/22 04:40:19;;;;;;;9.93;6.63;;;;;;;7.15;100.00;94598.38;6298970;22;20657;-78
2023/01/22 04:42:45;;;;;;;11.93;6.37;;;;;;;7.13;100.00;94594.41;6298850;22;20169;-77
2023/01/22 04:45:12;;;;;;;9.70;6.23;;;;;;;7.15;100.00;94602.72;6300176;22;20175;-76
2023/01/22 04:47:43;;;;;;;9.97;6.53;;;;;;;7.19;100.00;94604.72;6297896;22;20168;-77
2023/01/22 04:50:17;;;;;;;11.13;6.57;;;;;;;7.24;100.00;94604.13;6298393;22;20173;-78
2023/01/22 04:52:43;;;;;;;11.17;7.37;;;;;;;7.22;100.00;94608.69;6300584;22;20160;-78
2023/01/22 04:55:12;;;;;;;12.07;8.50;;;;;;;7.14;100.00;94616.63;6298786;22;20172;-77
2023/01/22 04:57:39;;;;;;;13.97;8.60;;;;;;;7.01;100.00;94606.31;6297660;22;20164;-78
2023/01/22 05:00:08;;;;;;;15.60;8.50;;;;;;;7.09;100.00;94625.00;6298590;22;20199;-76
2023/01/22 05:02:36;;;;;;;13.10;9.33;;;;;;;7.09;100.00;94626.78;6298742;22;20172;-77
2023/01/22 05:05:03;;;;;;;12.83;8.93;;;;;;;7.09;100.00;94637.09;6298147;22;20499;-77
2023/01/22 05:07:30;;;;;;;12.40;8.23;;;;;;;6.99;100.00;94634.09;6300350;22;20175;-78
2023/01/22 05:09:57;;;;;;;13.20;8.17;;;;;;;7.03;100.00;94641.28;6299044;22;20184;-77
2023/01/22 05:12:25;;;;;;;14.47;8.60;;;;;;;7.06;100.00;94653.00;6299252;22;20173;-78
2023/01/22 05:14:52;;;;;;;17.77;9.60;;;;;;;7.05;100.00;94659.16;6301319;22;20164;-78
2023/01/22 05:17:19;;;;;;;16.67;10.03;;;;;;;7.00;100.00;94656.38;6299305;22;20196;-78
2023/01/22 05:19:45;;;;;;;14.93;9.50;;;;;;;7.04;100.00;94660.94;6300056;22;20168;-78
2023/01/22 05:22:12;;;;;;;16.07;9.87;;;;;;;6.99;100.00;94659.94;6302641;22;20172;-79
2023/01/22 05:24:39;;;;;;;16.70;10.57;;;;;;;6.97;100.00;94664.50;6301392;22;20175;-78
2023/01/22 05:27:06;;;;;;;18.07;10.70;;;;;;;7.02;100.00;94669.88;6301808;22;20182;-80
2023/01/22 05:29:34;;;;;;;25.90;14.57;;;;;;;6.93;100.00;94668.47;6303908;22;20164;-78
2023/01/22 05:32:01;;;;;;;27.37;15.70;;;;;;;6.88;100.00;94670.84;6300551;22;20642;-78
2023/01/22 05:34:28;;;;;;;28.27;17.10;;;;;;;6.96;100.00;94678.41;6300046;22;20168;-78
2023/01/22 05:36:55;;;;;;;42.57;19.67;;;;;;;7.03;100.00;94689.56;6302819;22;20187;-78
2023/01/22 05:39:21;;;;;;;35.50;18.87;;;;;;;6.99;100.00;94688.34;6300210;22;20179;-78
2023/01/22 05:41:48;;;;;;;32.67;18.57;;;;;;;6.97;100.00;94706.66;6299606;22;20246;-76
2023/01/22 05:44:15;;;;;;;33.40;17.97;;;;;;;6.96;100.00;94715.38;6302552;22;20168;-77
2023/01/22 05:46:43;;;;;;;41.07;21.33;;;;;;;6.87;100.00;94695.88;6300295;22;20172;-77
2023/01/22 05:49:10;;;;;;;48.63;24.53;;;;;;;6.83;100.00;94716.16;6300348;22;20546;-77
2023/01/22 05:51:37;;;;;;;49.93;25.60;;;;;;;6.73;100.00;94714.88;6302378;22;20171;-77
2023/01/22 05:54:04;;;;;;;41.93;20.43;;;;;;;6.82;100.00;94724.88;6300081;22;20168;-77
2023/01/22 05:56:31;;;;;;;38.30;19.83;;;;;;;6.81;100.00;94725.06;6300091;22;20171;-77
2023/01/22 05:58:58;;;;;;;33.37;17.80;;;;;;;6.83;100.00;94730.84;6301387;22;20171;-77
2023/01/22 06:01:25;;;;;;;25.57;14.10;;;;;;;6.85;100.00;94732.22;6298943;22;20192;-77
2023/01/22 06:03:53;;;;;;;19.70;12.70;;;;;;;6.91;100.00;94729.88;6298650;22;20631;-77
2023/01/22 06:06:20;;;;;;;18.80;11.87;;;;;;;6.88;100.00;94738.00;6300214;22;20180;-77
2023/01/22 06:08:50;;;;;;;23.27;12.03;;;;;;;6.93;100.00;94741.59;6298028;22;20168;-76
2023/01/22 06:11:17;;;;;;;21.77;12.50;;;;;;;6.96;100.00;94748.16;6298133;22;20161;-76
2023/01/22 06:13:44;;;;;;;20.17;12.13;;;;;;;6.96;100.00;94748.16;6301052;22;20168;-76
2023/01/22 06:16:11;;;;;;;20.60;13.00;;;;;;;7.04;100.00;94753.19;6298408;22;20161;-77
2023/01/22 06:18:38;;;;;;;21.93;13.10;;;;;;;7.07;100.00;94761.31;6299641;22;20175;-77
2023/01/22 06:21:08;;;;;;;20.47;13.43;;;;;;;7.15;100.00;94760.38;6300582;22;20196;-71
2023/01/22 06:23:35;;;;;;;20.37;13.90;;;;;;;7.14;100.00;94764.72;6296823;22;20172;-71
2023/01/22 06:26:05;;;;;;;25.23;13.87;;;;;;;7.14;100.00;94764.72;6298299;22;20176;-71
2023/01/22 06:28:32;;;;;;;25.27;14.17;;;;;;;7.18;100.00;94763.38;6301307;22;20715;-71
2023/01/22 06:31:04;;;;;;;21.27;14.57;;;;;;;7.15;100.00;94768.91;6297844;22;20176;-71
2023/01/22 06:33:32;;;;;;;24.20;15.23;;;;;;;7.25;100.00;94774.50;6299099;22;20239;-73
2023/01/22 06:35:59;;;;;;;25.03;14.87;;;;;;;7.26;100.00;94775.31;6300578;22;20206;-72
2023/01/22 06:38:27;;;;;;;29.33;15.30;;;;;;;7.33;100.00;94765.78;6298931;22;20941;-74
2023/01/22 06:40:54;;;;;;;24.67;15.50;;;;;;;7.33;100.00;94774.31;6299335;22;20241;-71
2023/01/22 06:43:21;;;;;;;24.27;15.47;;;;;;;7.32;100.00;94777.13;6300677;22;20171;-72
2023/01/22 06:45:47;;;;;;;24.40;15.20;;;;;;;7.34;100.00;94786.25;6299291;22;20635;-71
2023/01/22 06:48:15;;;;;;;26.17;15.27;;;;;;;7.34;100.00;94783.69;6299265;22;20626;-71
2023/01/22 06:50:43;;;;;;;24.83;16.10;;;;;;;7.32;100.00;94796.00;6301098;22;20499;-72
2023/01/22 06:53:09;;;;;;;30.23;18.73;;;;;;;7.02;100.00;94792.09;6299360;22;20172;-72
2023/01/22 06:55:38;;;;;;;39.70;22.87;;;;;;;6.89;100.00;94796.44;6299416;22;20179;-72
2023/01/22 06:58:05;;;;;;;41.17;23.63;;;;;;;6.93;100.00;94801.00;6299669;22;20172;-72
2023/01/22 07:00:32;;;;;;;45.77;25.60;;;;;;;6.89;100.00;94796.44;6299369;22;20215;-72
2023/01/22 07:02:58;;;;;;;52.57;30.30;;;;;;;7.02;100.00;94804.22;6299385;22;20183;-73
2023/01/22 07:05:26;;;;;;;55.50;31.43;;;;;;;7.07;100.00;94805.25;6299836;22;20168;-72
2023/01/22 07:07:53;;;;;;;61.30;32.40;;;;;;;7.05;100.00;94799.47;6298345;22;20510;-72
2023/01/22 07:10:20;;;;;;;53.93;31.87;;;;;;;7.09;100.00;94807.66;6298108;22;20204;-71
2023/01/22 07:12:48;;;;;;;55.43;30.80;;;;;;;7.18;100.00;94809.88;6300101;22;20393;-72
2023/01/22 07:15:16;;;;;;;53.57;30.90;;;;;;;7.20;100.00;94804.50;6299651;22;20172;-71
2023/01/22 07:17:43;;;;;;;48.30;27.37;;;;;;;7.22;100.00;94807.69;6298723;22;20200;-72
2023/01/22 07:20:11;;;;;;;50.47;28.53;;;;;;;7.23;100.00;94817.84;6299506;22;20175;-74
2023/01/22 07:22:37;;;;;;;48.97;29.97;;;;;;;7.25;100.00;94823.59;6300611;22;20206;-73
2023/01/22 07:25:05;;;;;;;49.90;30.63;;;;;;;7.25;100.00;94821.03;6299264;22;20172;-73
2023/01/22 07:27:33;;;;;;;52.40;31.63;;;;;;;7.23;100.00;94822.22;6299826;22;20164;-73
2023/01/22 07:30:01;;;;;;;54.90;32.03;;;;;;;7.28;100.00;94825.81;6299313;22;20213;-72
2023/01/22 07:32:28;;;;;;;65.00;37.40;;;;;;;7.34;100.00;94827.63;6299153;22;20164;-72
2023/01/22 07:34:55;;;;;;;66.13;38.57;;;;;;;7.45;100.00;94823.69;6298328;22;20226;-72
2023/01/22 07:37:22;;;;;;;74.60;44.47;;;;;;;7.53;100.00;94825.31;6300245;22;20725;-72
2023/01/22 07:39:49;;;;;;;75.03;45.00;;;;;;;7.59;100.00;94833.06;6299172;22;20603;-72
2023/01/22 07:42:15;;;;;;;71.37;42.27;;;;;;;7.66;100.00;94822.75;6298400;22;20199;-72
2023/01/22 07:44:42;;;;;;;58.70;31.43;;;;;;;7.67;100.00;94835.50;6300846;22;20548;-75
2023/01/22 07:47:10;;;;;;;40.33;24.73;;;;;;;7.65;100.00;94828.91;6297927;22;20219;-73
2023/01/22 07:49:37;;;;;;;40.60;23.73;;;;;;;7.61;100.00;94838.84;6298609;22;20889;-73
2023/01/22 07:52:04;;;;;;;31.80;19.73;;;;;;;7.60;100.00;94826.09;6299276;22;20165;-71
2023/01/22 07:54:35;;;;;;;34.07;20.57;;;;;;;7.59;100.00;94827.88;6298091;22;20191;-73
2023/01/22 07:57:02;;;;;;;30.77;18.80;;;;;;;7.65;100.00;94834.88;6297137;22;20166;-71
2023/01/22 07:59:29;;;;;;;34.07;18.97;;;;;;;7.67;100.00;94827.72;6300640;22;20175;-72
2023/01/22 08:01:55;;;;;;;32.50;20.17;;;;;;;7.73;100.00;94832.13;6298983;22;20208;-71
2023/01/22 08:04:24;;;;;;;33.10;19.83;;;;;;;7.75;100.00;94829.34;6298738;22;20169;-71
2023/01/22 08:06:51;;;;;;;34.47;18.87;;;;;;;7.86;100.00;94839.91;6300423;22;20222;-72
2023/01/22 08:09:23;;;;;;;32.43;19.10;;;;;;;7.92;100.00;94848.66;6298882;22;20168;-71
2023/01/22 08:11:51;;;;;;;34.43;19.97;;;;;;;7.99;100.00;94846.91;6298103;22;20149;-73
2023/01/22 08:14:18;;;;;;;31.30;20.07;;;;;;;8.02;100.00;94851.69;6301009;22;20214;-71
2023/01/22 08:16:45;;;;;;;32.20;19.57;;;;;;;8.05;100.00;94846.13;6298782;22;20215;-71
2023/01/22 08:19:11;;;;;;;31.23;19.17;;;;;;;8.14;100.00;94849.31;6298414;22;20176;-72
2023/01/22 08:21:39;;;;;;;33.13;19.30;;;;;;;8.18;100.00;94847.91;6300457;22;20235;-72
2023/01/22 08:24:09;;;;;;;33.57;19.17;;;;;;;8.16;100.00;94852.50;6297906;22;20179;-72
2023/01/22 08:26:36;;;;;;;33.17;19.77;;;;;;;8.20;100.00;94858.84;6298414;22;20174;-77
2023/01/22 08:29:02;;;;;;;33.93;19.83;;;;;;;8.26;100.00;94861.44;6300837;22;20164;-78
2023/01/22 08:31:29;;;;;;;31.17;20.20;;;;;;;8.34;100.00;94857.91;6297726;22;20168;-76
2023/01/22 08:33:58;;;;;;;37.33;21.83;;;;;;;8.39;100.00;94861.50;6298782;22;20172;-77
2023/01/22 08:36:25;;;;;;;36.70;22.90;;;;;;;8.35;100.00;94856.91;6300454;22;20168;-76
2023/01/22 08:38:53;;;;;;;36.87;23.93;;;;;;;8.37;100.00;94857.50;6297392;22;20168;-75
2023/01/22 08:41:20;;;;;;;39.07;24.63;;;;;;;8.34;100.00;94856.09;6297850;22;20196;-75
2023/01/22 08:43:47;;;;;;;43.10;26.93;;;;;;;8.37;100.00;94852.31;6300282;22;20175;-76
2023/01/22 08:46:14;;;;;;;48.57;26.73;;;;;;;8.41;100.00;94856.09;6298401;22;20187;-75
2023/01/22 08:48:42;;;;;;;50.07;27.60;;;;;;;8.33;100.00;94864.88;6298762;22;20168;-75
2023/01/22 08:51:09;;;;;;;48.83;28.87;;;;;;;8.34;100.00;94857.91;6298803;22;20247;-75
2023/01/22 08:53:36;;;;;;;50.57;28.67;;;;;;;8.34;100.00;94852.75;6297284;22;20172;-77
2023/01/22 08:56:06;;;;;;;45.93;28.30;;;;;;;8.32;100.00;94859.88;6299776;22;20171;-77
2023/01/22 08:58:32;;;;;;;46.53;25.90;;;;;;;8.47;100.00;94860.50;6302470;22;20225;-77
2023/01/22 09:01:00;;;;;;;44.93;25.93;;;;;;;8.49;100.00;94863.66;6300765;22;20178;-77
2023/01/22 09:03:26;;;;;;;39.47;25.13;;;;;;;8.58;100.00;94854.72;6300371;22;20655;-77
2023/01/22 09:05:53;;;;;;;42.37;25.17;;;;;;;8.60;100.00;94863.06;6302009;22;20508;-78
2023/01/22 09:08:20;;;;;;;42.13;24.50;;;;;;;8.66;100.00;94858.91;6298469;22;20635;-77
2023/01/22 09:10:48;;;;;;;40.57;24.33;;;;;;;8.78;100.00;94854.69;6299910;22;20171;-77
2023/01/22 09:13:16;;;;;;;42.73;24.33;;;;;;;8.90;100.00;94861.66;6302432;22;20186;-78
2023/01/22 09:15:43;;;;;;;42.30;24.73;;;;;;;8.98;100.00;94860.63;6300971;22;20165;-76
2023/01/22 09:18:10;;;;;;;40.23;24.10;;;;;;;9.09;100.00;94857.44;6299847;22;20199;-75
2023/01/22 09:20:37;;;;;;;38.13;23.40;;;;;;;9.28;100.00;94859.16;6301814;22;20211;-77
2023/01/22 09:23:04;;;;;;;37.97;23.40;;;;;;;9.32;100.00;94844.00;6299835;22;20527;-78
2023/01/22 09:25:31;;;;;;;40.70;23.10;;;;;;;9.60;100.00;94860.84;6299252;22;20165;-75
2023/01/22 09:27:59;;;;;;;37.90;22.80;;;;;;;9.78;100.00;94867.94;6300628;22;20172;-75
2023/01/22 09:30:28;;;;;;;37.23;22.10;;;;;;;9.91;100.00;94860.09;6300410;22;20230;-77
2023/01/22 09:32:55;;;;;;;33.13;21.63;;;;;;;10.00;100.00;94858.84;6300590;22;20168;-78
2023/01/22 09:35:22;;;;;;;35.73;21.87;;;;;;;10.11;100.00;94859.97;6301472;22;20168;-80
2023/01/22 09:37:52;;;;;;;33.53;20.47;;;;;;;10.10;100.00;94859.16;6299368;22;20642;-76
2023/01/22 09:40:25;;;;;;;38.63;22.33;;;;;;;10.03;100.00;94857.63;6298145;22;20168;-75
2023/01/22 09:42:59;;;;;;;33.87;20.37;;;;;;;10.11;100.00;94863.34;6300016;22;20187;-76
2023/01/22 09:45:28;;;;;;;30.70;19.43;;;;;;;10.13;100.00;94853.56;6299502;22;20612;-75
2023/01/22 09:48:01;;;;;;;33.70;19.73;;;;;;;10.06;100.00;94854.59;6298641;22;20195;-76
2023/01/22 09:50:30;;;;;;;31.87;20.43;;;;;;;10.07;100.00;94841.41;6299111;22;20191;-76
2023/01/22 09:53:01;;;;;;;32.03;18.93;;;;;;;10.08;100.00;94840.41;6300010;22;20589;-76
2023/01/22 09:55:30;;;;;;;29.07;19.13;;;;;;;10.15;100.00;94856.78;6298643;22;20160;-75
2023/01/22 09:58:01;;;;;;;28.73;19.43;;;;;;;10.23;100.00;94856.50;6299320;22;20214;-75
2023/01/22 10:00:43;;;;;;;31.40;18.80;;;;;;;10.38;100.00;94858.81;6300214;22;20173;-76
2023/01/22 10:03:13;;;;;;;31.27;19.20;;;;;;;10.87;100.00;94852.00;6299226;22;20238;-76
2023/01/22 10:05:44;;;;;;;30.23;18.57;;;;;;;11.85;100.00;94866.53;6299300;22;20179;-76
2023/01/22 10:08:17;;;;;;;28.10;18.23;;;;;;;12.04;100.00;94856.84;6299796;22;20176;-77
2023/01/22 10:10:44;;;;;;;27.17;17.63;;;;;;;12.09;100.00;94863.00;6299278;22;20580;-77
2023/01/22 10:13:16;;;;;;;25.57;17.30;;;;;;;11.96;100.00;94860.59;6297273;22;20160;-77
2023/01/22 10:15:44;;;;;;;27.70;17.00;;;;;;;11.96;100.00;94857.97;6299868;22;20160;-78
2023/01/22 10:18:25;;;;;;;31.97;18.97;;;;;;;11.86;100.00;94858.50;6297084;22;20203;-78
2023/01/22 10:21:03;;;;;;;34.30;20.17;;;;;;;11.84;100.00;94862.34;6299531;22;20529;-78
2023/01/22 10:23:32;;;;;;;36.53;21.17;;;;;;;11.91;100.00;94848.22;6301172;22;20271;-78
2023/01/22 10:26:07;;;;;;;34.83;20.73;;;;;;;12.94;100.00;94866.09;6299946;22;20822;-77
2023/01/22 10:28:35;;;;;;;32.03;19.20;;;;;;;13.61;96.60;94847.22;6298740;22;20168;-77
2023/01/22 10:31:03;;;;;;;32.33;18.97;;;;;;;15.02;90.79;94864.56;6298869;22;20171;-78
2023/01/22 10:33:30;;;;;;;36.83;21.03;;;;;;;15.67;87.17;94867.28;6299958;22;20214;-78
2023/01/22 10:35:57;;;;;;;31.50;20.40;;;;;;;15.94;85.00;94875.19;6298273;22;20179;-77
2023/01/22 10:38:28;;;;;;;27.33;18.40;;;;;;;15.90;83.92;94874.13;6299409;22;20601;-78
2023/01/22 10:40:57;;;;;;;29.97;18.33;;;;;;;15.50;85.26;94874.41;6300826;22;20270;-76
2023/01/22 10:43:32;;;;;;;28.77;17.10;;;;;;;15.12;85.94;94863.91;6299226;22;20192;-76
2023/01/22 10:46:05;;;;;;;21.20;13.67;;;;;;;14.71;86.86;94865.94;6298395;22;20163;-75
2023/01/22 10:48:35;;;;;;;22.70;12.00;;;;;;;14.49;87.69;94859.78;6301215;22;20164;-76
2023/01/22 10:51:14;;;;;;;17.47;11.33;;;;;;;15.35;85.88;94863.72;6298679;22;20164;-75
2023/01/22 10:53:47;;;;;;;18.93;10.60;;;;;;;16.73;82.35;94865.78;6298766;22;20156;-75
2023/01/22 10:56:26;;;;;;;14.63;9.10;;;;;;;18.06;75.52;94868.91;6301005;22;20157;-75
2023/01/22 10:58:55;;;;;;;12.17;8.40;;;;;;;19.20;70.83;94871.91;6299698;22;20160;-75
2023/01/22 11:01:28;;;;;;;17.10;7.97;;;;;;;20.54;68.23;94885.19;6298290;22;20168;-75
2023/01/22 11:03:55;;;;;;;13.38;7.72;;;;;;;21.44;62.50;94891.66;6300117;22;20166;-75
2023/01/22 11:06:26;;;;;;;14.73;8.18;;;;;;;22.44;60.39;94878.31;6298971;22;20168;-75
2023/01/22 11:09:00;;;;;;;13.02;7.13;;;;;;;22.86;58.14;94886.19;6297576;22;20156;-75
2023/01/22 11:11:33;;;;;;;14.13;6.60;;;;;;;23.23;54.56;94892.50;6298783;22;20164;-75
2023/01/22 11:14:04;;;;;;;9.00;6.18;;;;;;;23.10;55.12;94888.72;6300797;22;20160;-75
2023/01/22 11:16:37;;;;;;;8.43;5.38;;;;;;;23.18;53.42;94894.16;6298281;22;20199;-75
2023/01/22 11:19:09;;;;;;;10.00;5.80;;;;;;;23.65;52.04;94898.41;6299124;22;20161;-75
2023/01/22 11:21:42;;;;;;;8.65;5.32;;;;;;;23.46;51.04;94887.06;6299525;22;20157;-75
2023/01/22 11:24:13;;;;;;;10.05;5.68;;;;;;;23.78;51.96;94891.53;6297396;22;20163;-76
2023/01/22 11:27:18;;;;;;;8.00;5.00;;;;;;;24.25;50.92;94891.16;6298686;22;20229;-76
2023/01/22 11:30:03;;;;;;;7.78;4.50;;;;;;;23.84;49.84;94889.59;6293091;22;20172;-75
2023/01/22 11:32:55;;;;;;;4.30;3.15;;;;;;;23.43;49.56;94886.88;6300627;22;20148;-78
2023/01/22 11:35:28;;;;;;;3.65;2.92;;;;;;;23.50;49.74;94893.38;6298344;22;20607;-76